»·PEaware :: N428RV KLMT-KEUG

N428RV :: KLMT-KEUG

FLIGHT INFORMATION

Flight Status: Arrived
Operator: Privately registered:
United States
More flights under this callsign
Pilot: Anonymous 21145 (21145)
Aircraft: MOONEY M-20K/M ENCORE BRAVO
(M20T)
More flights by this aircraft type
Origin: KLMT Klamath Falls Intl
United States
Destination: KEUG Mahlon Sweet
United States
More flights between these airports :: More routes between these airports
Route: MIXUP V452 EUG
File this flight plan on PilotEdge
Remarks:
Altitude:
(Current/Filed)
12,000ft
Speed:
(Current/Filed)
160kts
Departed: 27-Apr-19 09:17 AM
Arrived: 27-Apr-19 10:07 AM
Distance/Time
Traveled:
134nm/0:50
Distance/Time
To Go:
Arrived

Flight Plot

Page will automatically refresh every two minutes.

Flight plan parsing failed; only flown route is shown


Map Options




Map Legend


Flown Route
Filed Route
Departure Airport
Arrival Airport
Navaid (VOR, NDB)
Fix

Horizontal Profiles

Position Reports

Time Latitude Longitude Heading Altitude Ground
Speed
27-Apr-19 09:04 42.163781 -121.742064 151 4091ft 8kts
27-Apr-19 09:05 42.161819 -121.739408 157 4093ft 15kts
27-Apr-19 09:06 42.156624 -121.736633 157 4091ft 21kts
27-Apr-19 09:07 42.152537 -121.734433 158 4093ft 14kts
27-Apr-19 09:08 42.148269 -121.732143 158 4093ft 17kts
27-Apr-19 09:09 42.143851 -121.729797 158 4092ft 14kts
27-Apr-19 09:10 42.143058 -121.727716 67 4092ft 0kts
27-Apr-19 09:11 42.143058 -121.727716 67 4092ft 0kts
27-Apr-19 09:12 42.143058 -121.727716 67 4092ft 0kts
27-Apr-19 09:13 42.143058 -121.727716 67 4092ft 0kts
27-Apr-19 09:14 42.143058 -121.727716 67 4092ft 0kts
27-Apr-19 09:15 42.143414 -121.726751 37 4091ft 13kts
27-Apr-19 09:16 42.159675 -121.734881 339 4262ft 114kts
27-Apr-19 09:17 42.193448 -121.756064 321 5172ft 151kts
27-Apr-19 09:18 42.229948 -121.786271 332 6302ft 156kts
27-Apr-19 09:19 42.267710 -121.813908 330 7527ft 150kts
27-Apr-19 09:20 42.303813 -121.840236 330 8766ft 148kts
27-Apr-19 09:21 42.339824 -121.866438 329 9991ft 147kts
27-Apr-19 09:22 42.375645 -121.892528 327 11204ft 146kts
27-Apr-19 09:23 42.412339 -121.919350 326 12000ft 167kts
27-Apr-19 09:24 42.456778 -121.951707 327 12001ft 190kts
27-Apr-19 09:25 42.504213 -121.986354 327 12000ft 195kts
27-Apr-19 09:26 42.551777 -122.021571 327 11999ft 190kts
27-Apr-19 09:27 42.597593 -122.055671 327 12000ft 186kts
27-Apr-19 09:28 42.642654 -122.089176 327 12000ft 184kts
27-Apr-19 09:29 42.687684 -122.122729 327 12001ft 184kts
27-Apr-19 09:30 42.732415 -122.156158 327 12000ft 184kts
27-Apr-19 09:31 42.777130 -122.189624 327 11998ft 183kts
27-Apr-19 09:32 42.821543 -122.222924 327 11998ft 182kts
27-Apr-19 09:33 42.866009 -122.256357 327 11997ft 182kts
27-Apr-19 09:34 42.910145 -122.289562 327 11997ft 181kts
27-Apr-19 09:35 42.954221 -122.322767 327 11996ft 180kts
27-Apr-19 09:36 42.998099 -122.355911 327 11996ft 179kts
27-Apr-19 09:37 43.042133 -122.389186 327 11995ft 179kts
27-Apr-19 09:38 43.085795 -122.422278 327 12023ft 177kts
27-Apr-19 09:39 43.129062 -122.455120 327 12065ft 177kts
27-Apr-19 09:40 43.172072 -122.487743 327 12105ft 175kts
27-Apr-19 09:41 43.214819 -122.520336 327 12135ft 175kts
27-Apr-19 09:42 43.257607 -122.552918 327 12135ft 175kts
27-Apr-19 09:43 43.301616 -122.586499 327 11613ft 186kts
27-Apr-19 09:44 43.347656 -122.621714 328 10899ft 190kts
27-Apr-19 09:45 43.393569 -122.656901 328 10186ft 187kts
27-Apr-19 09:46 43.439224 -122.692003 329 9487ft 187kts
27-Apr-19 09:47 43.484378 -122.726685 330 9001ft 181kts
27-Apr-19 09:48 43.527304 -122.759771 330 8999ft 174kts
27-Apr-19 09:49 43.569356 -122.792208 330 9000ft 171kts
27-Apr-19 09:50 43.610939 -122.824339 330 8999ft 169kts
27-Apr-19 09:51 43.652208 -122.856225 330 9000ft 168kts
27-Apr-19 09:52 43.693325 -122.888007 330 8899ft 173kts
27-Apr-19 09:53 43.737391 -122.922392 330 7905ft 183kts
27-Apr-19 09:54 43.767003 -122.976320 291 6875ft 181kts
27-Apr-19 09:55 43.782600 -123.041985 290 6006ft 171kts
27-Apr-19 09:56 43.797113 -123.101085 294 5990ft 160kts
27-Apr-19 09:57 43.814495 -123.163232 294 5003ft 179kts
27-Apr-19 09:58 43.843735 -123.211172 347 3782ft 159kts
27-Apr-19 09:59 43.886626 -123.215237 0 2902ft 148kts
27-Apr-19 10:00 43.926657 -123.215923 0 2898ft 142kts
27-Apr-19 10:01 43.966308 -123.216514 0 2675ft 146kts
27-Apr-19 10:02 44.005842 -123.216282 6 2179ft 130kts
27-Apr-19 10:03 44.040911 -123.218775 0 1709ft 115kts
27-Apr-19 10:04 44.072067 -123.218747 1 1133ft 111kts
27-Apr-19 10:05 44.102572 -123.218933 1 638ft 109kts
27-Apr-19 10:06 44.122478 -123.218937 358 365ft 26kts
27-Apr-19 10:07 44.125145 -123.217554 150 363ft 8kts
27-Apr-19 10:08 44.122193 -123.217014 181 366ft 11kts
27-Apr-19 10:09 44.118981 -123.215673 146 367ft 11kts
27-Apr-19 10:10 44.117897 -123.215227 207 367ft 0kts

Navigation Log

Ident Type
Flight plan parsing failed, navigation log unavailable